Time;durP1;ratioP1;P1;durP2;ratioP2;P2;SDS_P1;SDS_P2;PMS_P1;PMS_P2;Temp;Humidity;BMP_temperature;BMP_pressure;BME280_temperature;BME280_humidity;BME280_pressure;Samples;Min_cycle;Max_cycle;Signal;HPM_P1;HPM_P2
2023/03/22 00:01:22;;;;;;;14.77;8.70;;;9.90;99.90;;;;;;5095903;28;20039;-64
2023/03/22 00:03:49;;;;;;;14.15;8.90;;;9.90;99.90;;;;;;5097591;28;20047;-64
2023/03/22 00:06:15;;;;;;;15.10;8.52;;;9.90;99.90;;;;;;5104052;28;20063;-64
2023/03/22 00:08:42;;;;;;;13.45;8.95;;;9.90;99.90;;;;;;5091888;28;20064;-64
2023/03/22 00:11:08;;;;;;;15.65;9.48;;;9.90;99.90;;;;;;5096038;28;20137;-64
2023/03/22 00:13:36;;;;;;;16.90;10.32;;;9.90;99.90;;;;;;5096640;28;20043;-64
2023/03/22 00:16:04;;;;;;;14.02;9.60;;;9.90;99.90;;;;;;5094782;28;20118;-65
2023/03/22 00:18:30;;;;;;;19.88;9.02;;;9.90;99.90;;;;;;5093640;28;20692;-64
2023/03/22 00:20:58;;;;;;;15.48;8.57;;;9.80;99.90;;;;;;5103066;28;20046;-64
2023/03/22 00:23:25;;;;;;;10.90;7.50;;;9.90;99.90;;;;;;5094264;28;20059;-64
2023/03/22 00:25:51;;;;;;;14.93;8.23;;;9.90;99.90;;;;;;5105545;28;20043;-64
2023/03/22 00:28:17;;;;;;;13.55;7.28;;;9.90;99.90;;;;;;5096769;28;20042;-64
2023/03/22 00:31:08;;;;;;;14.20;6.95;;;10.00;99.90;;;;;;5105169;28;20044;-64
2023/03/22 00:33:34;;;;;;;12.43;6.97;;;10.00;99.90;;;;;;5103433;28;20047;-64
2023/03/22 00:36:03;;;;;;;12.60;7.13;;;9.90;99.90;;;;;;5104970;28;20046;-64
2023/03/22 00:38:38;;;;;;;13.55;7.65;;;9.90;99.90;;;;;;5099296;28;20050;-64
2023/03/22 00:41:09;;;;;;;14.48;7.18;;;9.80;99.90;;;;;;5083706;28;20138;-64
2023/03/22 00:43:36;;;;;;;14.23;7.82;;;9.90;99.90;;;;;;5101476;28;20516;-64
2023/03/22 00:46:02;;;;;;;13.52;7.95;;;9.80;99.90;;;;;;5102632;28;20036;-64
2023/03/22 00:48:28;;;;;;;13.25;7.85;;;9.80;99.90;;;;;;5098413;28;20040;-64
2023/03/22 00:50:53;;;;;;;14.27;8.63;;;9.80;99.90;;;;;;5093610;28;20136;-64
2023/03/22 00:53:19;;;;;;;14.55;8.70;;;9.70;99.90;;;;;;5104154;28;20774;-64
2023/03/22 00:55:45;;;;;;;11.95;7.80;;;9.70;99.90;;;;;;5102188;28;20065;-64
2023/03/22 00:58:10;;;;;;;13.93;7.88;;;9.70;99.90;;;;;;5100354;28;20472;-64
2023/03/22 01:00:36;;;;;;;13.57;7.72;;;9.70;99.90;;;;;;5101558;28;20082;-64
2023/03/22 01:03:05;;;;;;;12.52;7.55;;;9.70;99.90;;;;;;5098048;28;20062;-64
2023/03/22 01:05:32;;;;;;;14.18;7.95;;;9.70;99.90;;;;;;5092564;28;20422;-63
2023/03/22 01:08:09;;;;;;;14.65;7.22;;;9.70;99.90;;;;;;5092273;28;20567;-64
2023/03/22 01:10:37;;;;;;;10.88;5.90;;;9.70;99.90;;;;;;5102160;28;20097;-64
2023/03/22 01:13:03;;;;;;;11.93;6.15;;;9.70;99.90;;;;;;5093954;28;20035;-64
2023/03/22 01:15:29;;;;;;;13.48;6.07;;;9.70;99.90;;;;;;5103517;28;20044;-64
2023/03/22 01:17:55;;;;;;;15.38;6.53;;;9.70;99.90;;;;;;5101078;28;20121;-64
2023/03/22 01:20:21;;;;;;;9.98;5.82;;;9.60;99.90;;;;;;5092748;28;20472;-63
2023/03/22 01:22:47;;;;;;;12.63;6.22;;;9.60;99.90;;;;;;5099912;28;20480;-64
2023/03/22 01:25:13;;;;;;;13.18;6.68;;;9.70;99.90;;;;;;5095053;28;20077;-64
2023/03/22 01:27:39;;;;;;;10.52;6.35;;;9.60;99.90;;;;;;5092538;28;20433;-64
2023/03/22 01:30:06;;;;;;;10.20;6.20;;;9.60;99.90;;;;;;5077301;28;20094;-64
2023/03/22 01:32:32;;;;;;;13.90;6.13;;;9.60;99.90;;;;;;5101194;28;20044;-64
2023/03/22 01:34:58;;;;;;;13.52;6.55;;;9.50;99.90;;;;;;5103289;28;20031;-64
2023/03/22 01:37:26;;;;;;;13.60;5.85;;;9.50;99.90;;;;;;5101383;28;20088;-64
2023/03/22 01:39:53;;;;;;;10.85;5.20;;;9.60;99.90;;;;;;5078448;28;20417;-64
2023/03/22 01:42:21;;;;;;;10.27;4.95;;;9.60;99.90;;;;;;5103519;28;20051;-64
2023/03/22 01:45:15;;;;;;;10.07;5.15;;;9.50;99.90;;;;;;5103154;28;20027;-64
2023/03/22 01:47:51;;;;;;;12.43;5.25;;;9.60;99.90;;;;;;5101184;28;20564;-64
2023/03/22 01:50:17;;;;;;;11.23;4.50;;;9.60;99.90;;;;;;5102262;28;20101;-63
2023/03/22 01:52:43;;;;;;;11.30;5.13;;;9.60;99.90;;;;;;5098139;28;20043;-64
2023/03/22 01:55:11;;;;;;;8.45;4.65;;;9.60;99.90;;;;;;5100700;28;20051;-64
2023/03/22 01:57:38;;;;;;;10.07;4.07;;;9.60;99.90;;;;;;5102051;28;20401;-64
2023/03/22 02:00:12;;;;;;;8.80;4.70;;;9.60;99.90;;;;;;5102037;28;20492;-64
2023/03/22 02:02:38;;;;;;;9.88;5.30;;;9.60;99.90;;;;;;5102866;28;20235;-64
2023/03/22 02:05:04;;;;;;;8.93;4.75;;;9.50;99.90;;;;;;5092600;28;20039;-64
2023/03/22 02:07:30;;;;;;;10.18;4.50;;;9.50;99.90;;;;;;5102793;28;20031;-64
2023/03/22 02:09:57;;;;;;;9.13;4.50;;;9.50;99.90;;;;;;5076408;28;20481;-64
2023/03/22 02:12:56;;;;;;;13.07;4.55;;;9.50;99.90;;;;;;5096574;27;20128;-64
2023/03/22 02:15:42;;;;;;;11.23;4.60;;;9.40;99.90;;;;;;5097682;28;20527;-64
2023/03/22 02:18:43;;;;;;;7.97;4.38;;;9.40;99.90;;;;;;5100445;28;20036;-64
2023/03/22 02:21:39;;;;;;;12.52;5.57;;;9.40;99.90;;;;;;5099283;28;20087;-64
2023/03/22 02:24:31;;;;;;;10.77;5.15;;;9.40;99.90;;;;;;5099777;28;20453;-64
2023/03/22 02:27:37;;;;;;;11.55;5.35;;;9.40;99.90;;;;;;5101241;28;20088;-64
2023/03/22 02:30:07;;;;;;;10.77;4.72;;;9.40;99.90;;;;;;5093586;28;20039;-64
2023/03/22 02:32:45;;;;;;;12.95;5.60;;;9.40;99.90;;;;;;5103005;28;20098;-64
2023/03/22 02:35:29;;;;;;;15.48;5.68;;;9.40;99.90;;;;;;5098618;28;20038;-64
2023/03/22 02:38:10;;;;;;;8.25;5.32;;;9.40;99.90;;;;;;5077044;28;20510;-64
2023/03/22 02:40:45;;;;;;;14.55;5.68;;;9.40;99.90;;;;;;5088350;28;20040;-64
2023/03/22 02:43:25;;;;;;;10.00;5.10;;;9.40;99.90;;;;;;5100670;28;20040;-64
2023/03/22 02:46:25;;;;;;;11.48;5.43;;;9.30;99.90;;;;;;5095025;28;20062;-64
2023/03/22 02:49:07;;;;;;;10.23;4.75;;;9.30;99.90;;;;;;5095701;28;20054;-64
2023/03/22 02:51:40;;;;;;;9.00;4.70;;;9.30;99.90;;;;;;5101759;28;20051;-64
2023/03/22 02:54:32;;;;;;;11.88;4.70;;;9.40;99.90;;;;;;5099092;28;20046;-64
2023/03/22 02:57:08;;;;;;;;;;;9.40;99.90;;;;;;5096446;28;20042;-64
2023/03/22 02:59:37;;;;;;;10.15;4.60;;;9.30;99.90;;;;;;5101149;28;20015;-64
2023/03/22 03:02:04;;;;;;;13.95;5.05;;;9.40;99.90;;;;;;5100774;28;20398;-64
2023/03/22 03:04:38;;;;;;;12.20;4.60;;;9.40;99.90;;;;;;5095838;28;20036;-64
2023/03/22 03:07:08;;;;;;;15.98;4.15;;;9.30;99.90;;;;;;5103208;28;20411;-63
2023/03/22 03:09:36;;;;;;;14.75;4.47;;;9.30;99.90;;;;;;5099984;28;20391;-64
2023/03/22 03:12:01;;;;;;;9.18;4.80;;;9.30;99.90;;;;;;5102243;28;20097;-64
2023/03/22 03:14:29;;;;;;;7.95;4.28;;;9.30;99.90;;;;;;5101726;28;20031;-64
2023/03/22 03:17:16;;;;;;;14.57;5.15;;;9.30;99.90;;;;;;5101055;28;20036;-64
2023/03/22 03:20:07;;;;;;;7.85;4.20;;;9.30;99.90;;;;;;5101572;28;20032;-64
2023/03/22 03:22:56;;;;;;;9.20;3.90;;;9.30;99.90;;;;;;5094103;28;20517;-64
2023/03/22 03:25:27;;;;;;;7.97;3.85;;;9.30;99.90;;;;;;5103485;28;20036;-63
2023/03/22 03:27:57;;;;;;;12.95;4.63;;;9.30;99.90;;;;;;5077491;28;21319;-64
2023/03/22 03:30:33;;;;;;;9.98;3.50;;;9.20;99.90;;;;;;5102581;28;20472;-64
2023/03/22 03:33:08;;;;;;;13.60;3.75;;;9.20;99.90;;;;;;5102814;28;20553;-64
2023/03/22 03:35:40;;;;;;;12.48;3.60;;;9.20;99.90;;;;;;5101891;28;20131;-64
2023/03/22 03:38:11;;;;;;;8.50;4.30;;;9.20;99.90;;;;;;5101376;28;20054;-64
2023/03/22 03:40:42;;;;;;;13.18;3.60;;;9.20;99.90;;;;;;5091518;28;20508;-65
2023/03/22 03:43:08;;;;;;;9.80;4.55;;;9.20;99.90;;;;;;5101193;28;20040;-64
2023/03/22 03:45:36;;;;;;;21.77;4.32;;;9.20;99.90;;;;;;5101351;28;20106;-64
2023/03/22 03:48:06;;;;;;;10.88;3.78;;;9.20;99.90;;;;;;5078356;28;20040;-64
2023/03/22 03:50:33;;;;;;;5.78;3.50;;;9.20;99.90;;;;;;5103918;28;20042;-64
2023/03/22 03:52:59;;;;;;;7.03;3.90;;;9.20;99.90;;;;;;5092975;28;20095;-64
2023/03/22 03:55:26;;;;;;;8.75;3.83;;;9.20;99.90;;;;;;5077742;28;20090;-64
2023/03/22 03:57:52;;;;;;;9.77;4.38;;;9.20;99.90;;;;;;5094137;28;20112;-63
2023/03/22 04:00:18;;;;;;;9.95;4.13;;;9.20;99.90;;;;;;5097193;28;20055;-64
2023/03/22 04:02:44;;;;;;;10.63;4.20;;;9.10;99.90;;;;;;5102462;28;20042;-64
2023/03/22 04:05:11;;;;;;;9.82;4.30;;;9.10;99.90;;;;;;5100901;28;20044;-64
2023/03/22 04:07:37;;;;;;;7.47;3.95;;;9.10;99.90;;;;;;5094104;28;20063;-64
2023/03/22 04:10:04;;;;;;;10.05;4.45;;;9.10;99.90;;;;;;5098490;28;20044;-64
2023/03/22 04:12:31;;;;;;;10.30;4.78;;;9.20;99.90;;;;;;5078555;28;20126;-63
2023/03/22 04:14:57;;;;;;;10.23;4.85;;;9.20;99.90;;;;;;5108248;28;20071;-64
2023/03/22 04:17:24;;;;;;;14.00;5.50;;;9.30;99.90;;;;;;5097325;28;20059;-63
2023/03/22 04:19:52;;;;;;;12.02;5.95;;;9.30;99.90;;;;;;5093375;28;20109;-64
2023/03/22 04:22:18;;;;;;;13.07;7.32;;;9.30;99.90;;;;;;5096791;28;20043;-64
2023/03/22 04:24:48;;;;;;;15.38;7.40;;;9.30;99.90;;;;;;5075701;28;20040;-64
2023/03/22 04:27:16;;;;;;;12.77;8.18;;;9.40;99.90;;;;;;5096537;28;20532;-63
2023/03/22 04:29:47;;;;;;;14.38;7.47;;;9.40;99.90;;;;;;5096152;28;20051;-64
2023/03/22 04:32:21;;;;;;;14.65;8.00;;;9.40;99.90;;;;;;5094526;28;20036;-63
2023/03/22 04:34:51;;;;;;;13.80;8.75;;;9.50;99.90;;;;;;5094509;28;20044;-64
2023/03/22 04:37:18;;;;;;;17.40;9.02;;;9.60;99.90;;;;;;5097239;28;20122;-64
2023/03/22 04:39:45;;;;;;;15.27;9.00;;;9.60;99.90;;;;;;5105275;28;20030;-64
2023/03/22 04:42:11;;;;;;;13.75;9.52;;;9.60;99.90;;;;;;5098138;28;20036;-64
2023/03/22 04:44:37;;;;;;;16.98;10.07;;;9.60;99.90;;;;;;5094447;28;20063;-64
2023/03/22 04:47:02;;;;;;;15.70;9.82;;;9.60;99.90;;;;;;5101712;28;20067;-64
2023/03/22 04:49:28;;;;;;;15.95;9.32;;;9.70;99.90;;;;;;5096794;28;20039;-64
2023/03/22 04:51:55;;;;;;;19.55;10.52;;;9.70;99.90;;;;;;5102875;28;20040;-63
2023/03/22 04:54:21;;;;;;;18.60;10.43;;;9.70;99.90;;;;;;5099164;28;20382;-64
2023/03/22 04:56:47;;;;;;;16.40;10.93;;;9.70;99.90;;;;;;5103925;28;20149;-64
2023/03/22 04:59:13;;;;;;;19.40;10.25;;;9.70;99.90;;;;;;5102348;28;20042;-64
2023/03/22 05:01:41;;;;;;;16.55;10.52;;;9.70;99.90;;;;;;5095594;28;20083;-64
2023/03/22 05:04:07;;;;;;;19.58;10.95;;;9.70;99.90;;;;;;5093852;28;20036;-63
2023/03/22 05:06:33;;;;;;;15.98;9.95;;;9.70;99.90;;;;;;5080312;28;20035;-63
2023/03/22 05:08:59;;;;;;;15.70;10.00;;;9.70;99.90;;;;;;5104181;28;20058;-64
2023/03/22 05:11:26;;;;;;;15.73;9.05;;;9.70;99.90;;;;;;5097044;28;20122;-64
2023/03/22 05:13:56;;;;;;;16.33;9.80;;;9.80;99.90;;;;;;5101861;28;20044;-64
2023/03/22 05:16:23;;;;;;;17.05;9.77;;;9.80;99.90;;;;;;5104422;28;20442;-64
2023/03/22 05:18:53;;;;;;;20.85;10.15;;;9.80;99.90;;;;;;5095151;28;20043;-64
2023/03/22 05:21:27;;;;;;;15.05;10.20;;;9.70;99.90;;;;;;5094768;28;20039;-64
2023/03/22 05:23:57;;;;;;;16.90;9.90;;;9.80;99.90;;;;;;5092666;28;20079;-64
2023/03/22 05:26:25;;;;;;;13.70;10.02;;;9.70;99.90;;;;;;5100854;28;20046;-64
2023/03/22 05:28:52;;;;;;;16.50;9.85;;;9.70;99.90;;;;;;5075865;28;20173;-64
2023/03/22 05:31:20;;;;;;;19.00;10.88;;;9.80;99.90;;;;;;5102152;28;20047;-64
2023/03/22 05:33:47;;;;;;;15.65;9.73;;;9.80;99.90;;;;;;5102360;28;20028;-64
2023/03/22 05:36:13;;;;;;;16.80;9.85;;;9.70;99.90;;;;;;5087802;28;20038;-64
2023/03/22 05:38:38;;;;;;;17.67;10.07;;;9.80;99.90;;;;;;5103143;28;20055;-64
2023/03/22 05:41:04;;;;;;;15.85;9.77;;;9.80;99.90;;;;;;5102951;27;20066;-64
2023/03/22 05:43:31;;;;;;;17.33;8.93;;;9.80;99.90;;;;;;5079853;28;20039;-63
2023/03/22 05:45:57;;;;;;;17.70;10.52;;;9.80;99.90;;;;;;5105341;28;20031;-64
2023/03/22 05:48:23;;;;;;;16.40;9.68;;;9.80;99.90;;;;;;5094086;28;20031;-64
2023/03/22 05:50:49;;;;;;;16.08;9.90;;;9.80;99.90;;;;;;5104539;28;20027;-64
2023/03/22 05:53:14;;;;;;;15.43;9.75;;;9.80;99.90;;;;;;5090980;28;20488;-64
2023/03/22 05:55:40;;;;;;;13.98;9.25;;;9.80;99.90;;;;;;5102569;28;20024;-64
2023/03/22 05:58:07;;;;;;;15.25;9.88;;;9.80;99.90;;;;;;5101232;28;20039;-64
2023/03/22 06:00:33;;;;;;;13.15;9.07;;;9.80;99.90;;;;;;5094752;28;20092;-64
2023/03/22 06:03:04;;;;;;;12.38;8.80;;;9.80;99.90;;;;;;5100714;28;20031;-64
2023/03/22 06:05:31;;;;;;;16.40;9.68;;;9.80;99.90;;;;;;5101310;28;20042;-64
2023/03/22 06:07:57;;;;;;;17.63;9.07;;;9.80;99.90;;;;;;5102913;28;20050;-64
2023/03/22 06:10:25;;;;;;;13.93;8.13;;;9.80;99.90;;;;;;5089887;28;20071;-64
2023/03/22 06:12:52;;;;;;;15.45;9.88;;;9.80;99.90;;;;;;5095078;28;20101;-64
2023/03/22 06:15:18;;;;;;;17.33;8.63;;;9.80;99.90;;;;;;5119276;28;20035;-62
2023/03/22 06:17:44;;;;;;;16.02;8.95;;;9.80;99.90;;;;;;5122368;28;20064;-62
2023/03/22 06:20:12;;;;;;;14.35;9.10;;;9.80;99.90;;;;;;5125396;28;20055;-63
2023/03/22 06:22:38;;;;;;;14.65;8.27;;;9.80;99.90;;;;;;5122062;28;20051;-64
2023/03/22 06:25:05;;;;;;;13.60;7.95;;;9.80;99.90;;;;;;5122154;28;20061;-63
2023/03/22 06:27:32;;;;;;;19.85;8.90;;;9.90;99.90;;;;;;5108118;28;20036;-63
2023/03/22 06:29:57;;;;;;;12.25;8.25;;;9.90;99.90;;;;;;5082172;28;20044;-64
2023/03/22 06:32:25;;;;;;;16.13;8.23;;;9.80;99.90;;;;;;5094235;28;20519;-64
2023/03/22 06:34:54;;;;;;;12.13;7.70;;;9.80;99.90;;;;;;5081759;28;20046;-64
2023/03/22 06:37:21;;;;;;;15.38;8.02;;;9.80;99.90;;;;;;5102847;28;20035;-64
2023/03/22 06:39:47;;;;;;;15.98;8.05;;;9.80;99.90;;;;;;5101055;28;20539;-64
2023/03/22 06:42:13;;;;;;;14.20;7.90;;;9.80;99.90;;;;;;5103375;28;20049;-64
2023/03/22 06:44:42;;;;;;;12.93;7.60;;;9.80;99.90;;;;;;5100516;28;20028;-64
2023/03/22 06:47:08;;;;;;;12.05;7.85;;;9.80;99.90;;;;;;5104457;28;20085;-64
2023/03/22 06:49:34;;;;;;;13.15;7.78;;;9.80;99.90;;;;;;5103289;28;20036;-64
2023/03/22 06:52:00;;;;;;;14.60;7.38;;;9.80;99.90;;;;;;5097344;28;20039;-64
2023/03/22 06:54:26;;;;;;;13.20;6.97;;;9.90;99.90;;;;;;5100812;28;20412;-64
2023/03/22 06:56:52;;;;;;;12.48;7.28;;;9.90;99.90;;;;;;5098898;28;20036;-64
2023/03/22 06:59:17;;;;;;;12.90;7.95;;;10.00;99.90;;;;;;5100800;28;20496;-63
2023/03/22 07:01:43;;;;;;;11.70;6.57;;;10.10;99.90;;;;;;5078878;28;20508;-63
2023/03/22 07:04:09;;;;;;;13.73;6.90;;;10.10;99.90;;;;;;5093708;28;20035;-63
2023/03/22 07:06:35;;;;;;;13.43;6.70;;;10.10;99.90;;;;;;5091427;28;20031;-64
2023/03/22 07:09:01;;;;;;;11.73;6.65;;;10.10;99.90;;;;;;5092284;28;20496;-64
2023/03/22 07:11:27;;;;;;;12.30;6.30;;;10.20;99.90;;;;;;5092682;28;20040;-64
2023/03/22 07:13:53;;;;;;;15.25;7.15;;;10.20;99.90;;;;;;5090460;28;20047;-64
2023/03/22 07:16:20;;;;;;;13.35;6.45;;;10.30;99.90;;;;;;5097328;28;20123;-64
2023/03/22 07:18:47;;;;;;;13.07;6.45;;;10.40;99.90;;;;;;5091891;28;20414;-64
2023/03/22 07:21:13;;;;;;;11.23;5.90;;;10.50;99.90;;;;;;5101028;28;20100;-64
2023/03/22 07:23:39;;;;;;;11.07;6.47;;;10.50;99.90;;;;;;5078220;28;20099;-64
2023/03/22 07:26:05;;;;;;;11.13;5.55;;;10.60;99.90;;;;;;5099070;28;20063;-64
2023/03/22 07:28:31;;;;;;;10.13;5.28;;;10.60;99.90;;;;;;5102848;28;20036;-64
2023/03/22 07:31:10;;;;;;;8.32;5.28;;;10.70;99.90;;;;;;5097294;28;20043;-64
2023/03/22 07:33:37;;;;;;;7.63;4.85;;;10.60;99.90;;;;;;5102912;28;20683;-64
2023/03/22 07:36:04;;;;;;;9.43;5.53;;;10.60;99.90;;;;;;5096054;28;20044;-64
2023/03/22 07:38:30;;;;;;;10.10;6.05;;;10.60;99.90;;;;;;5084612;28;20050;-64
2023/03/22 07:40:55;;;;;;;12.07;5.97;;;10.60;99.90;;;;;;5110319;28;20438;-64
2023/03/22 07:43:22;;;;;;;10.85;5.28;;;10.60;99.90;;;;;;5100730;28;20115;-64
2023/03/22 07:45:48;;;;;;;10.93;5.68;;;10.50;99.90;;;;;;5094027;28;20042;-64
2023/03/22 07:48:17;;;;;;;13.52;5.47;;;10.60;99.90;;;;;;5100316;28;20035;-64
2023/03/22 07:50:44;;;;;;;10.75;5.15;;;10.50;99.90;;;;;;5095359;28;20143;-64
2023/03/22 07:53:10;;;;;;;12.85;5.40;;;10.50;99.90;;;;;;5091944;28;20044;-64
2023/03/22 07:55:37;;;;;;;11.20;5.10;;;10.70;99.90;;;;;;5100550;28;20042;-64
2023/03/22 07:58:03;;;;;;;9.02;4.80;;;11.00;99.90;;;;;;5100562;28;20036;-64
2023/03/22 08:00:29;;;;;;;8.82;4.88;;;11.10;99.90;;;;;;5096829;28;20123;-64
2023/03/22 08:02:55;;;;;;;7.75;4.63;;;11.30;99.90;;;;;;5100221;28;20047;-64
2023/03/22 08:05:21;;;;;;;7.47;4.82;;;11.30;99.90;;;;;;5101655;28;20081;-64
2023/03/22 08:07:51;;;;;;;11.15;5.47;;;11.40;99.90;;;;;;5097716;28;20066;-64
2023/03/22 08:10:17;;;;;;;10.38;4.82;;;11.60;99.90;;;;;;5097430;28;20156;-64
2023/03/22 08:12:43;;;;;;;9.73;4.32;;;11.70;99.90;;;;;;5102983;28;20270;-64
2023/03/22 08:15:09;;;;;;;7.97;3.97;;;11.50;99.90;;;;;;5093497;28;20043;-64
2023/03/22 08:17:35;;;;;;;9.85;4.57;;;11.30;99.90;;;;;;5093634;28;20035;-64
2023/03/22 08:20:06;;;;;;;8.65;4.25;;;11.20;99.90;;;;;;5100992;28;20124;-64
2023/03/22 08:22:32;;;;;;;4.57;3.55;;;11.10;99.90;;;;;;5091754;28;20056;-64
2023/03/22 08:24:57;;;;;;;9.88;4.05;;;11.00;99.90;;;;;;5096154;28;20047;-64
2023/03/22 08:27:23;;;;;;;9.15;4.25;;;11.00;99.90;;;;;;5102163;28;20040;-64
2023/03/22 08:29:49;;;;;;;7.63;3.90;;;11.00;99.90;;;;;;5094361;28;20127;-64
2023/03/22 08:32:16;;;;;;;8.25;4.00;;;11.00;99.90;;;;;;5096740;28;20047;-64
2023/03/22 08:34:43;;;;;;;5.97;3.72;;;11.00;99.90;;;;;;5105179;27;20104;-64
2023/03/22 08:37:10;;;;;;;12.18;4.75;;;11.00;99.90;;;;;;5093582;28;20040;-64
2023/03/22 08:39:36;;;;;;;8.43;4.22;;;11.00;99.90;;;;;;5097162;28;20044;-64
2023/03/22 08:42:03;;;;;;;8.82;4.10;;;11.00;99.90;;;;;;5094430;28;20401;-64
2023/03/22 08:44:29;;;;;;;8.10;3.97;;;11.00;99.90;;;;;;5092716;28;20043;-64
2023/03/22 08:46:55;;;;;;;5.78;3.20;;;11.00;99.90;;;;;;5099957;28;20484;-64
2023/03/22 08:49:21;;;;;;;5.57;3.30;;;11.00;99.90;;;;;;5095298;28;20047;-64
2023/03/22 08:51:47;;;;;;;8.88;3.42;;;11.00;99.90;;;;;;5075847;28;20039;-64
2023/03/22 08:54:13;;;;;;;6.20;3.10;;;11.00;99.90;;;;;;5076940;28;20121;-64
2023/03/22 08:56:40;;;;;;;11.20;4.30;;;11.00;99.90;;;;;;5102319;28;20059;-64
2023/03/22 08:59:08;;;;;;;7.80;3.70;;;11.00;99.90;;;;;;5098438;28;20092;-64
2023/03/22 09:01:35;;;;;;;10.23;3.85;;;11.00;99.90;;;;;;5096825;28;20131;-64
2023/03/22 09:04:02;;;;;;;9.88;3.85;;;11.10;99.90;;;;;;5092321;28;20063;-64
2023/03/22 09:06:28;;;;;;;11.18;3.35;;;11.20;99.90;;;;;;5094035;28;20040;-64
2023/03/22 09:08:55;;;;;;;9.13;3.80;;;11.20;99.90;;;;;;5093610;28;20476;-64
2023/03/22 09:11:21;;;;;;;7.57;3.40;;;11.20;99.90;;;;;;5094094;28;20048;-64
2023/03/22 09:13:48;;;;;;;7.30;3.47;;;11.10;99.90;;;;;;5104410;28;20047;-64
2023/03/22 09:16:15;;;;;;;7.28;3.47;;;11.10;99.90;;;;;;5092088;28;20051;-64
2023/03/22 09:18:41;;;;;;;6.20;3.53;;;11.30;99.90;;;;;;5096197;28;20096;-64
2023/03/22 09:21:08;;;;;;;8.02;3.72;;;11.50;99.90;;;;;;5098609;28;20534;-64
2023/03/22 09:23:36;;;;;;;6.70;3.33;;;11.80;99.90;;;;;;5097673;28;20644;-64
2023/03/22 09:26:07;;;;;;;9.77;3.40;;;11.90;99.90;;;;;;5095991;28;20097;-64
2023/03/22 09:28:34;;;;;;;8.10;3.60;;;11.80;99.90;;;;;;5091526;28;20090;-64
2023/03/22 09:31:06;;;;;;;9.88;3.53;;;11.80;99.90;;;;;;5093937;28;20569;-64
2023/03/22 09:33:32;;;;;;;9.75;3.58;;;11.70;99.90;;;;;;5094066;28;20036;-64
2023/03/22 09:35:58;;;;;;;11.85;3.90;;;11.80;99.90;;;;;;5093539;28;20558;-64
2023/03/22 09:38:26;;;;;;;6.63;3.38;;;11.70;99.90;;;;;;5092437;28;20036;-64
2023/03/22 09:41:00;;;;;;;5.25;3.35;;;11.70;99.90;;;;;;5095336;28;20043;-65
2023/03/22 09:43:33;;;;;;;10.77;3.75;;;11.60;99.90;;;;;;5098668;28;20565;-64
2023/03/22 09:46:00;;;;;;;9.75;3.72;;;11.60;99.90;;;;;;5104284;28;20062;-64
2023/03/22 09:48:41;;;;;;;8.07;3.50;;;11.60;99.90;;;;;;5100722;28;20114;-64
2023/03/22 09:51:22;;;;;;;8.93;4.03;;;11.60;99.90;;;;;;5095734;28;20172;-65
2023/03/22 09:53:48;;;;;;;11.02;4.53;;;11.60;99.90;;;;;;5091855;28;20413;-65
2023/03/22 09:56:24;;;;;;;11.85;4.03;;;11.60;99.90;;;;;;5076119;28;20143;-64
2023/03/22 09:59:05;;;;;;;10.43;3.60;;;11.60;99.90;;;;;;5093527;28;20044;-64
2023/03/22 10:02:13;;;;;;;9.45;4.05;;;11.60;99.90;;;;;;5091680;28;20028;-64
2023/03/22 10:05:21;;;;;;;12.48;4.53;;;11.60;99.90;;;;;;5052720;28;20119;-65
2023/03/22 10:08:23;;;;;;;9.95;4.93;;;11.50;99.90;;;;;;5098559;28;20408;-66
2023/03/22 10:10:51;;;;;;;10.02;3.63;;;11.50;99.90;;;;;;5092655;28;20044;-65
2023/03/22 10:13:23;;;;;;;9.15;3.67;;;11.40;99.90;;;;;;5100619;28;20123;-65
2023/03/22 10:15:52;;;;;;;16.10;4.00;;;11.40;99.90;;;;;;5098241;28;20092;-65
2023/03/22 10:18:31;;;;;;;8.40;3.97;;;11.40;99.90;;;;;;5092890;28;20449;-66
2023/03/22 10:21:06;;;;;;;10.57;4.80;;;11.30;99.90;;;;;;5093575;28;20133;-66
2023/03/22 10:23:50;;;;;;;8.60;4.35;;;11.30;99.90;;;;;;5091609;28;20055;-65
2023/03/22 10:26:29;;;;;;;9.10;4.15;;;11.30;99.90;;;;;;5091615;28;20032;-65
2023/03/22 10:29:02;;;;;;;7.65;4.28;;;11.20;99.90;;;;;;5098899;28;20111;-65
2023/03/22 10:31:30;;;;;;;9.05;4.22;;;11.20;99.90;;;;;;5094519;28;20085;-65
2023/03/22 10:34:05;;;;;;;7.55;3.88;;;11.10;99.90;;;;;;5075657;28;20051;-65
2023/03/22 10:36:34;;;;;;;12.98;4.25;;;11.20;99.90;;;;;;5094695;28;20035;-65
2023/03/22 10:39:15;;;;;;;8.50;4.10;;;11.10;99.90;;;;;;5097558;28;20048;-65
2023/03/22 10:41:42;;;;;;;9.40;4.60;;;11.10;99.90;;;;;;5101237;28;20097;-65
2023/03/22 10:44:16;;;;;;;11.05;4.68;;;11.10;99.90;;;;;;5092289;28;20040;-66
2023/03/22 10:46:44;;;;;;;11.43;4.55;;;11.10;99.90;;;;;;5105758;28;20132;-65
2023/03/22 10:49:23;;;;;;;11.98;4.78;;;11.10;99.90;;;;;;5094838;28;20039;-65
2023/03/22 10:51:53;;;;;;;10.80;4.00;;;11.00;99.90;;;;;;5091556;28;20047;-66
2023/03/22 10:54:20;;;;;;;9.55;4.10;;;11.00;99.90;;;;;;5090933;28;20203;-66
2023/03/22 10:56:46;;;;;;;8.00;3.97;;;11.00;99.90;;;;;;5092222;28;20043;-66
2023/03/22 10:59:48;;;;;;;9.48;4.57;;;10.90;99.90;;;;;;5091780;28;20032;-66
2023/03/22 11:02:19;;;;;;;8.20;4.47;;;10.80;99.90;;;;;;5090964;28;20443;-66
2023/03/22 11:04:52;;;;;;;10.23;4.85;;;10.70;99.90;;;;;;5093339;28;20435;-66
2023/03/22 11:07:32;;;;;;;16.25;5.00;;;10.70;99.90;;;;;;5099065;28;20035;-66
2023/03/22 11:10:10;;;;;;;10.40;5.15;;;10.70;99.90;;;;;;5095279;28;20070;-66
2023/03/22 11:12:39;;;;;;;12.80;5.20;;;11.00;99.90;;;;;;5100188;28;20028;-66
2023/03/22 11:15:06;;;;;;;10.85;4.80;;;10.60;99.90;;;;;;5093744;28;20039;-66
2023/03/22 11:17:37;;;;;;;10.32;4.78;;;10.60;99.90;;;;;;5098321;28;20032;-66
2023/03/22 11:20:08;;;;;;;13.10;5.72;;;10.60;99.90;;;;;;5095206;28;20085;-67
2023/03/22 11:22:38;;;;;;;12.60;4.88;;;10.60;99.90;;;;;;5095349;28;20059;-66
2023/03/22 11:25:27;;;;;;;11.88;5.10;;;10.70;99.90;;;;;;5100037;28;20485;-66
2023/03/22 11:27:57;;;;;;;9.55;4.75;;;10.70;99.90;;;;;;5091416;28;20040;-67
2023/03/22 11:30:27;;;;;;;8.43;4.90;;;10.70;99.90;;;;;;5095828;28;20031;-67
2023/03/22 11:33:24;;;;;;;11.43;4.80;;;10.70;99.90;;;;;;5092763;28;20040;-67
2023/03/22 11:36:03;;;;;;;8.52;5.00;;;10.80;99.90;;;;;;5098058;28;20051;-67
2023/03/22 11:38:39;;;;;;;11.10;5.00;;;10.70;99.90;;;;;;5097058;28;20364;-67
2023/03/22 11:41:24;;;;;;;10.02;4.90;;;10.60;99.90;;;;;;5102693;28;20038;-67
2023/03/22 11:43:54;;;;;;;10.60;5.35;;;10.60;99.90;;;;;;5092279;28;20496;-66
2023/03/22 11:46:20;;;;;;;8.30;4.05;;;10.60;99.90;;;;;;5105017;27;20031;-67
2023/03/22 11:48:55;;;;;;;10.20;4.80;;;10.50;99.90;;;;;;5086076;28;20069;-67
2023/03/22 11:51:37;;;;;;;7.60;4.07;;;10.50;99.90;;;;;;5083656;28;20089;-67
2023/03/22 11:54:09;;;;;;;9.55;5.03;;;10.60;99.90;;;;;;5085819;28;20414;-67
2023/03/22 11:56:40;;;;;;;5.15;3.75;;;10.50;99.90;;;;;;5085506;28;20051;-67
2023/03/22 11:59:11;;;;;;;7.38;3.50;;;10.50;99.90;;;;;;5081201;28;20047;-67
2023/03/22 12:01:45;;;;;;;8.85;4.45;;;10.50;99.90;;;;;;5085991;28;20115;-67
2023/03/22 12:04:16;;;;;;;8.30;4.60;;;10.50;99.90;;;;;;5064398;28;20043;-67
2023/03/22 12:06:42;;;;;;;9.75;4.07;;;10.50;99.90;;;;;;5083051;28;20569;-67
2023/03/22 12:09:17;;;;;;;10.18;4.53;;;10.50;99.90;;;;;;5080131;28;20044;-67
2023/03/22 12:11:47;;;;;;;9.45;5.05;;;10.50;99.90;;;;;;5080430;28;20100;-66
2023/03/22 12:14:32;;;;;;;8.32;4.07;;;10.50;99.90;;;;;;5080922;28;20051;-67
2023/03/22 12:17:00;;;;;;;14.73;4.88;;;10.50;99.90;;;;;;5081546;28;20544;-67
2023/03/22 12:20:07;;;;;;;11.75;5.00;;;10.50;99.90;;;;;;5080350;28;20047;-67
2023/03/22 12:22:53;;;;;;;10.57;4.70;;;10.50;99.90;;;;;;5063408;28;20051;-67
2023/03/22 12:25:27;;;;;;;10.95;4.53;;;10.50;99.90;;;;;;5078770;28;20121;-66
2023/03/22 12:28:02;;;;;;;8.38;4.18;;;10.50;99.90;;;;;;5087244;28;20039;-67
2023/03/22 12:30:39;;;;;;;10.48;5.00;;;10.50;99.90;;;;;;5085037;28;20064;-67
2023/03/22 12:33:29;;;;;;;9.85;3.90;;;10.50;99.90;;;;;;5080046;28;20392;-69
2023/03/22 12:36:00;;;;;;;6.38;3.40;;;10.60;99.90;;;;;;5078103;28;20059;-68
2023/03/22 12:38:45;;;;;;;10.85;4.22;;;10.50;99.90;;;;;;5081401;28;20048;-69
2023/03/22 12:41:34;;;;;;;9.30;3.83;;;10.50;99.90;;;;;;5079563;28;20036;-66
2023/03/22 12:44:22;;;;;;;9.57;3.97;;;10.60;99.90;;;;;;5081307;28;20512;-66
2023/03/22 12:46:52;;;;;;;10.88;4.38;;;10.50;99.90;;;;;;5081461;28;20102;-66
2023/03/22 12:49:34;;;;;;;5.47;3.90;;;10.50;99.90;;;;;;5081743;28;20040;-66
2023/03/22 12:52:22;;;;;;;6.95;3.47;;;10.50;99.90;;;;;;5079270;28;20137;-66
2023/03/22 12:54:49;;;;;;;7.88;3.80;;;10.60;99.90;;;;;;5080567;28;20069;-66
2023/03/22 12:57:16;;;;;;;9.98;3.63;;;10.50;99.90;;;;;;5082733;28;20054;-66
2023/03/22 12:59:46;;;;;;;12.18;4.00;;;10.60;99.90;;;;;;5074767;28;20052;-66
2023/03/22 13:02:31;;;;;;;5.47;3.35;;;10.60;99.90;;;;;;5081206;28;20071;-66
2023/03/22 13:05:00;;;;;;;9.20;3.20;;;10.70;99.90;;;;;;5082157;28;20512;-66